Time;durP1;ratioP1;P1;durP2;ratioP2;P2;SDS_P1;SDS_P2;PMS_P1;PMS_P2;Temp;Humidity;BMP_temperature;BMP_pressure;BME280_temperature;BME280_humidity;BME280_pressure;Samples;Min_cycle;Max_cycle;Signal;HPM_P1;HPM_P2
2022/08/20 00:02:01;;;;;;;0.00;0.00;;;;;;;19.41;100.00;101476.50;4978808;28;20065;-75
2022/08/20 00:04:26;;;;;;;0.00;0.00;;;;;;;19.45;100.00;101474.31;4982146;28;20398;-75
2022/08/20 00:06:51;;;;;;;0.00;0.00;;;;;;;19.49;100.00;101475.69;4984859;28;20505;-75
2022/08/20 00:09:17;;;;;;;0.00;0.00;;;;;;;19.56;100.00;101473.16;4987635;28;20038;-75
2022/08/20 00:11:42;;;;;;;0.00;0.00;;;;;;;19.55;100.00;101471.44;4980023;28;20030;-75
2022/08/20 00:14:08;;;;;;;0.00;0.00;;;;;;;19.49;100.00;101473.81;4986747;28;20096;-75
2022/08/20 00:16:35;;;;;;;0.00;0.00;;;;;;;19.48;100.00;101469.38;4967475;28;20019;-75
2022/08/20 00:19:04;;;;;;;0.00;0.00;;;;;;;19.48;100.00;101457.66;4963858;28;20459;-75
2022/08/20 00:21:30;;;;;;;0.00;0.00;;;;;;;19.49;100.00;101470.25;4983527;28;20026;-75
2022/08/20 00:23:55;;;;;;;0.00;0.00;;;;;;;19.29;100.00;101436.97;4985884;28;20042;-75
2022/08/20 00:26:21;;;;;;;0.10;0.00;;;;;;;19.43;100.00;101469.03;4976279;28;20100;-75
2022/08/20 00:28:47;;;;;;;0.00;0.00;;;;;;;19.41;100.00;101472.91;4977591;28;20053;-74
2022/08/20 00:31:14;;;;;;;0.00;0.00;;;;;;;19.41;100.00;101473.78;4981687;28;20109;-75
2022/08/20 00:33:40;;;;;;;0.00;0.00;;;;;;;19.41;100.00;101476.50;4974827;28;20026;-74
2022/08/20 00:36:08;;;;;;;0.00;0.00;;;;;;;19.42;100.00;101469.19;4983413;28;20505;-75
2022/08/20 00:38:35;;;;;;;0.00;0.00;;;;;;;19.46;100.00;101471.44;4984292;28;20085;-75
2022/08/20 00:41:00;;;;;;;0.00;0.00;;;;;;;19.44;100.00;101469.88;4977134;28;20033;-75
2022/08/20 00:43:39;;;;;;;0.00;0.00;;;;;;;19.38;100.00;101470.50;4979996;28;20030;-75
2022/08/20 00:46:10;;;;;;;0.00;0.00;;;;;;;19.33;100.00;101471.84;4984004;28;20109;-75
2022/08/20 00:48:38;;;;;;;0.00;0.00;;;;;;;19.25;100.00;101455.50;4981793;28;20382;-75
2022/08/20 00:51:08;;;;;;;0.00;0.00;;;;;;;19.27;100.00;101456.19;4974945;28;20058;-75
2022/08/20 00:53:35;;;;;;;0.00;0.00;;;;;;;19.30;100.00;101455.00;4984674;28;20113;-75
2022/08/20 00:56:00;;;;;;;0.00;0.00;;;;;;;19.37;100.00;101466.97;4979278;28;20057;-75
2022/08/20 00:58:27;;;;;;;0.00;0.00;;;;;;;19.25;100.00;101441.88;4978886;28;20034;-75
2022/08/20 01:00:53;;;;;;;0.00;0.00;;;;;;;19.37;100.00;101466.97;4978535;28;20494;-75
2022/08/20 01:03:19;;;;;;;0.05;0.05;;;;;;;19.36;100.00;101470.69;4986792;28;20056;-75
2022/08/20 01:05:48;;;;;;;0.00;0.00;;;;;;;19.31;100.00;101462.16;4984438;28;20030;-75
2022/08/20 01:08:16;;;;;;;0.00;0.00;;;;;;;19.34;100.00;101470.00;4982260;28;20030;-74
2022/08/20 01:10:47;;;;;;;0.00;0.00;;;;;;;19.39;100.00;101472.22;4976135;28;20033;-75
2022/08/20 01:13:16;;;;;;;0.00;0.00;;;;;;;19.43;100.00;101471.75;4977894;28;20041;-74
2022/08/20 01:15:43;;;;;;;0.05;0.05;;;;;;;19.47;100.00;101472.28;4982621;28;20227;-74
2022/08/20 01:18:11;;;;;;;0.00;0.00;;;;;;;19.51;100.00;101472.78;4981688;28;20393;-75
2022/08/20 01:20:39;;;;;;;0.00;0.00;;;;;;;19.41;100.00;101462.03;4989835;28;20050;-75
2022/08/20 01:23:26;;;;;;;0.00;0.00;;;;;;;19.20;100.00;101463.28;4981320;28;20030;-74
2022/08/20 01:25:59;;;;;;;0.00;0.00;;;;;;;19.15;100.00;101474.66;4977852;28;20030;-73
2022/08/20 01:28:42;;;;;;;0.00;0.00;;;;;;;18.88;100.00;101468.34;4977839;28;20030;-75
2022/08/20 01:31:13;;;;;;;0.00;0.00;;;;;;;18.69;100.00;101463.06;4982418;28;20581;-75
2022/08/20 01:33:40;;;;;;;0.00;0.00;;;;;;;18.72;100.00;101474.50;4982912;28;20149;-74
2022/08/20 01:36:06;;;;;;;0.00;0.00;;;;;;;18.80;100.00;101472.88;4973751;28;20033;-74
2022/08/20 01:38:32;;;;;;;0.00;0.00;;;;;;;18.77;100.00;101452.25;4974234;28;20034;-74
2022/08/20 01:41:36;;;;;;;0.00;0.00;;;;;;;18.96;100.00;101467.56;4978595;28;20053;-74
2022/08/20 01:44:01;;;;;;;0.00;0.00;;;;;;;19.01;100.00;101467.06;4982479;28;20081;-74
2022/08/20 01:46:31;;;;;;;0.00;0.00;;;;;;;18.95;100.00;101456.78;4981787;28;20038;-74
2022/08/20 01:48:57;;;;;;;0.00;0.00;;;;;;;18.93;100.00;101450.69;4979849;28;20379;-74
2022/08/20 01:51:27;;;;;;;0.00;0.00;;;;;;;19.03;100.00;101468.66;4979454;28;20041;-74
2022/08/20 01:53:54;;;;;;;0.00;0.00;;;;;;;19.02;100.00;101460.63;4982207;28;20033;-74
2022/08/20 01:56:24;;;;;;;0.00;0.00;;;;;;;19.02;100.00;101464.22;4974895;28;20026;-74
2022/08/20 01:58:53;;;;;;;0.00;0.00;;;;;;;19.08;100.00;101472.72;4960996;28;20030;-73
2022/08/20 02:01:22;;;;;;;0.00;0.00;;;;;;;19.14;100.00;101475.69;4981908;28;20553;-74
2022/08/20 02:03:47;;;;;;;0.00;0.00;;;;;;;19.19;100.00;101469.75;4974606;28;20085;-74
2022/08/20 02:06:13;;;;;;;0.00;0.00;;;;;;;19.25;100.00;101470.97;4972442;28;20546;-74
2022/08/20 02:08:38;;;;;;;0.00;0.00;;;;;;;19.28;100.00;101466.06;4981925;28;20032;-74
2022/08/20 02:11:04;;;;;;;0.00;0.00;;;;;;;19.32;100.00;101472.91;4979501;28;20462;-73
2022/08/20 02:13:29;;;;;;;0.00;0.00;;;;;;;19.23;100.00;101470.25;4977243;28;20387;-74
2022/08/20 02:15:54;;;;;;;0.00;0.00;;;;;;;19.12;100.00;101463.22;4981751;28;20289;-74
2022/08/20 02:18:19;;;;;;;0.00;0.00;;;;;;;19.11;100.00;101469.69;4981468;28;20077;-74
2022/08/20 02:20:45;;;;;;;0.00;0.00;;;;;;;19.20;100.00;101467.91;4980467;28;20453;-74
2022/08/20 02:23:11;;;;;;;0.00;0.00;;;;;;;19.22;100.00;101469.44;4981492;28;20092;-73
2022/08/20 02:25:39;;;;;;;0.00;0.00;;;;;;;19.17;100.00;101472.63;4973514;28;20364;-73
2022/08/20 02:28:08;;;;;;;0.00;0.00;;;;;;;19.03;100.00;101451.44;4979308;28;20030;-73
2022/08/20 02:30:39;;;;;;;0.10;0.10;;;;;;;18.94;100.00;101458.69;4962132;28;20027;-74
2022/08/20 02:33:08;;;;;;;0.00;0.00;;;;;;;18.83;100.00;101448.03;4980562;28;20561;-73
2022/08/20 02:35:33;;;;;;;0.00;0.00;;;;;;;18.82;100.00;101444.47;4975383;28;20065;-74
2022/08/20 02:37:59;;;;;;;0.00;0.00;;;;;;;18.84;100.00;101447.91;4979041;28;20030;-74
2022/08/20 02:40:26;;;;;;;0.00;0.00;;;;;;;19.05;100.00;101479.34;4980499;28;20034;-74
2022/08/20 02:42:52;;;;;;;0.00;0.00;;;;;;;19.05;100.00;101473.91;4978537;28;20418;-74
2022/08/20 02:45:18;;;;;;;0.00;0.00;;;;;;;19.02;100.00;101480.53;4983261;28;20441;-73
2022/08/20 02:47:44;;;;;;;0.00;0.00;;;;;;;19.03;100.00;101476.81;4976438;28;20030;-74
2022/08/20 02:50:16;;;;;;;0.00;0.00;;;;;;;19.01;100.00;101470.66;4979912;28;20467;-74
2022/08/20 02:52:42;;;;;;;0.00;0.00;;;;;;;18.98;100.00;101479.16;4980151;28;20113;-74
2022/08/20 02:55:08;;;;;;;0.00;0.00;;;;;;;18.91;100.00;101458.16;4978987;28;20359;-74
2022/08/20 02:57:34;;;;;;;0.00;0.00;;;;;;;18.94;100.00;101471.41;4979380;28;20030;-74
2022/08/20 03:00:00;;;;;;;0.00;0.00;;;;;;;18.96;100.00;101473.00;4982267;28;20022;-74
2022/08/20 03:02:26;;;;;;;0.00;0.00;;;;;;;18.95;100.00;101467.69;4978829;28;20034;-74
2022/08/20 03:04:51;;;;;;;0.00;0.00;;;;;;;19.03;100.00;101478.66;4975987;28;20029;-74
2022/08/20 03:07:17;;;;;;;0.00;0.00;;;;;;;19.09;100.00;101485.31;4982455;28;20113;-74
2022/08/20 03:09:42;;;;;;;0.00;0.00;;;;;;;19.03;100.00;101460.47;4977948;28;20034;-74
2022/08/20 03:12:08;;;;;;;0.00;0.00;;;;;;;19.00;100.00;101447.19;4979944;28;20035;-74
2022/08/20 03:14:34;;;;;;;0.00;0.00;;;;;;;19.17;100.00;101479.94;4977504;28;20040;-74
2022/08/20 03:16:59;;;;;;;0.00;0.00;;;;;;;19.14;100.00;101474.81;4981411;28;20019;-74
2022/08/20 03:19:25;;;;;;;0.00;0.00;;;;;;;19.10;100.00;101471.56;4981106;28;20038;-74
2022/08/20 03:21:51;;;;;;;0.00;0.00;;;;;;;19.11;100.00;101473.28;4983907;28;20470;-74
2022/08/20 03:24:16;;;;;;;0.00;0.00;;;;;;;19.12;100.00;101474.13;4981570;28;20037;-75
2022/08/20 03:26:42;;;;;;;0.00;0.00;;;;;;;19.10;100.00;101484.31;4982785;28;20437;-74
2022/08/20 03:29:07;;;;;;;0.00;0.00;;;;;;;18.96;100.00;101456.69;4981372;28;20116;-75
2022/08/20 03:31:33;;;;;;;0.60;0.10;;;;;;;19.06;100.00;101477.50;4980158;28;20363;-74
2022/08/20 03:33:58;;;;;;;0.00;0.00;;;;;;;19.05;100.00;101479.34;4982996;28;20129;-74
2022/08/20 03:36:25;;;;;;;0.00;0.00;;;;;;;18.87;100.00;101453.03;4984708;28;20026;-74
2022/08/20 03:38:50;;;;;;;0.00;0.00;;;;;;;19.06;100.00;101489.22;4975370;28;20030;-74
2022/08/20 03:41:15;;;;;;;0.10;0.10;;;;;;;19.02;100.00;101477.81;4980589;28;20078;-74
2022/08/20 03:43:41;;;;;;;0.00;0.00;;;;;;;18.91;100.00;101461.72;4977754;28;20030;-74
2022/08/20 03:46:07;;;;;;;0.00;0.00;;;;;;;18.97;100.00;101484.72;4983927;28;20383;-74
2022/08/20 03:48:32;;;;;;;0.00;0.00;;;;;;;18.92;100.00;101485.19;4983723;28;20084;-74
2022/08/20 03:50:59;;;;;;;0.00;0.00;;;;;;;18.92;100.00;101485.19;4982975;28;20105;-74
2022/08/20 03:53:30;;;;;;;0.00;0.00;;;;;;;18.88;100.00;101483.78;4984027;28;20592;-74
2022/08/20 03:55:59;;;;;;;0.00;0.00;;;;;;;18.72;100.00;101473.63;4979342;28;20033;-74
2022/08/20 03:58:26;;;;;;;0.00;0.00;;;;;;;18.46;100.00;101457.28;4983252;28;20526;-74
2022/08/20 04:00:52;;;;;;;0.00;0.00;;;;;;;18.49;100.00;101479.56;4961400;28;20023;-74
2022/08/20 04:03:17;;;;;;;0.00;0.00;;;;;;;18.34;100.00;101462.13;4984309;28;20034;-74
2022/08/20 04:05:44;;;;;;;0.13;0.00;;;;;;;18.50;100.00;101475.00;4980722;28;20487;-74
2022/08/20 04:08:20;;;;;;;0.00;0.00;;;;;;;18.56;100.00;101483.38;4980607;28;20430;-74
2022/08/20 04:10:47;;;;;;;0.00;0.00;;;;;;;18.46;100.00;101465.44;4980640;28;20018;-74
2022/08/20 04:13:14;;;;;;;0.00;0.00;;;;;;;18.61;100.00;101496.50;4978166;28;20118;-74
2022/08/20 04:15:40;;;;;;;0.00;0.00;;;;;;;18.58;100.00;101500.41;4981029;28;20031;-74
2022/08/20 04:18:07;;;;;;;0.10;0.10;;;;;;;18.60;100.00;101500.22;4981675;28;20026;-74
2022/08/20 04:20:34;;;;;;;0.00;0.00;;;;;;;18.64;100.00;101498.06;4982506;28;20022;-74
2022/08/20 04:23:00;;;;;;;0.05;0.05;;;;;;;18.46;100.00;101479.03;4979483;28;20022;-74
2022/08/20 04:25:30;;;;;;;0.00;0.00;;;;;;;18.57;100.00;101498.69;4981739;28;20406;-74
2022/08/20 04:27:57;;;;;;;0.00;0.00;;;;;;;18.47;100.00;101491.63;4960316;28;20037;-74
2022/08/20 04:30:24;;;;;;;0.00;0.00;;;;;;;18.57;100.00;101504.13;4981359;28;20073;-74
2022/08/20 04:32:50;;;;;;;0.00;0.00;;;;;;;18.65;100.00;101516.09;4982451;28;20435;-75
2022/08/20 04:35:17;;;;;;;0.00;0.00;;;;;;;18.64;100.00;101506.22;4978041;28;20034;-74
2022/08/20 04:37:45;;;;;;;0.00;0.00;;;;;;;18.63;100.00;101507.22;4975211;28;20033;-74
2022/08/20 04:42:58;;;;;;;0.10;0.10;;;;;;;18.61;100.00;101509.25;4978326;28;20041;-75
2022/08/20 04:45:24;;;;;;;0.00;0.00;;;;;;;18.68;100.00;101515.75;4980991;28;20026;-74
2022/08/20 04:47:50;;;;;;;0.10;0.10;;;;;;;18.72;100.00;101522.59;4977397;28;20485;-75
2022/08/20 04:50:16;;;;;;;0.10;0.10;;;;;;;18.53;100.00;101497.28;4980851;28;20027;-74
2022/08/20 04:52:41;;;;;;;0.00;0.00;;;;;;;18.71;100.00;101534.47;4980441;28;20026;-74
2022/08/20 04:55:07;;;;;;;0.10;0.10;;;;;;;18.65;100.00;101527.81;4978479;28;20482;-74
2022/08/20 04:57:36;;;;;;;0.10;0.10;;;;;;;18.65;100.00;101530.53;4975146;28;20486;-75
2022/08/20 05:00:08;;;;;;;0.00;0.00;;;;;;;18.66;100.00;101528.69;4980670;28;20023;-74
2022/08/20 05:02:34;;;;;;;0.00;0.00;;;;;;;18.68;100.00;101532.94;4977913;28;21500;-74
2022/08/20 05:05:00;;;;;;;0.10;0.10;;;;;;;18.70;100.00;101539.09;4976333;28;20034;-74
2022/08/20 05:07:25;;;;;;;0.00;0.00;;;;;;;18.72;100.00;101544.34;4980261;28;20045;-74
2022/08/20 05:09:50;;;;;;;0.10;0.10;;;;;;;18.76;100.00;101544.91;4985740;28;20529;-74
2022/08/20 05:12:16;;;;;;;0.00;0.00;;;;;;;18.65;100.00;101533.25;4983954;28;20546;-74
2022/08/20 05:14:42;;;;;;;0.08;0.08;;;;;;;18.64;100.00;101542.41;4980715;28;20038;-74
2022/08/20 05:17:07;;;;;;;0.10;0.10;;;;;;;18.56;100.00;101536.91;4979740;28;20054;-75
2022/08/20 05:19:36;;;;;;;0.00;0.00;;;;;;;18.58;100.00;101543.03;4975225;28;20510;-74
2022/08/20 05:22:02;;;;;;;0.10;0.10;;;;;;;18.35;100.00;101539.94;4978638;28;20041;-74
2022/08/20 05:24:27;;;;;;;0.00;0.00;;;;;;;18.37;100.00;101548.78;4979790;28;20034;-73
2022/08/20 05:26:54;;;;;;;0.00;0.00;;;;;;;18.29;100.00;101544.97;4977957;28;20033;-74
2022/08/20 05:29:22;;;;;;;0.00;0.00;;;;;;;18.33;100.00;101529.19;4979721;28;20118;-74
2022/08/20 05:31:47;;;;;;;0.00;0.00;;;;;;;18.53;100.00;101548.94;4978109;28;20019;-74
2022/08/20 05:34:13;;;;;;;0.00;0.00;;;;;;;18.69;100.00;101550.97;4978516;28;20442;-74
2022/08/20 05:36:44;;;;;;;0.10;0.10;;;;;;;18.83;100.00;101555.00;4980478;28;20037;-73
2022/08/20 05:39:10;;;;;;;0.10;0.10;;;;;;;18.74;100.00;101543.19;4982213;28;20061;-75
2022/08/20 05:41:37;;;;;;;0.10;0.10;;;;;;;18.66;100.00;101555.88;4980681;28;20316;-73
2022/08/20 05:44:02;;;;;;;0.10;0.10;;;;;;;18.68;100.00;101545.66;4974211;28;20030;-74
2022/08/20 05:46:29;;;;;;;0.00;0.00;;;;;;;18.83;100.00;101554.13;4976970;28;20045;-75
2022/08/20 05:48:55;;;;;;;0.10;0.10;;;;;;;18.99;100.00;101559.75;4978849;28;20040;-75
2022/08/20 05:51:21;;;;;;;0.08;0.08;;;;;;;19.02;100.00;101556.72;4981188;28;20038;-75
2022/08/20 05:53:46;;;;;;;0.00;0.00;;;;;;;19.11;100.00;101544.03;4979311;28;20727;-76
2022/08/20 05:56:11;;;;;;;0.00;0.00;;;;;;;19.26;100.00;101557.06;4977827;28;20045;-76
2022/08/20 05:58:36;;;;;;;0.00;0.00;;;;;;;19.12;100.00;101534.88;4981661;28;20034;-76
2022/08/20 06:01:02;;;;;;;0.10;0.10;;;;;;;19.32;100.00;101553.69;4974283;28;20069;-75
2022/08/20 06:06:12;;;;;;;0.10;0.10;;;;;;;19.27;100.00;101548.75;4979325;28;20493;-75
2022/08/20 06:08:38;;;;;;;0.00;0.00;;;;;;;19.30;100.00;101556.59;4980389;28;20038;-75
2022/08/20 06:11:03;;;;;;;0.00;0.00;;;;;;;19.33;100.00;101567.13;4975903;28;20077;-73
2022/08/20 06:13:28;;;;;;;0.00;0.00;;;;;;;19.30;100.00;101563.91;4975270;28;20110;-75
2022/08/20 06:15:55;;;;;;;0.00;0.00;;;;;;;19.29;100.00;101568.50;4983401;28;20061;-75
2022/08/20 06:18:21;;;;;;;0.10;0.10;;;;;;;19.16;100.00;101541.69;4984886;28;20022;-75
2022/08/20 06:20:46;;;;;;;0.10;0.10;;;;;;;19.32;100.00;101567.31;4982491;28;20026;-74
2022/08/20 06:23:12;;;;;;;0.08;0.08;;;;;;;19.34;100.00;101571.56;4983629;28;20173;-75
2022/08/20 06:25:37;;;;;;;0.00;0.00;;;;;;;19.19;100.00;101554.13;4980470;28;20038;-75
2022/08/20 06:28:03;;;;;;;0.10;0.10;;;;;;;19.15;100.00;101575.38;4980652;28;20030;-74
2022/08/20 06:30:28;;;;;;;0.05;0.05;;;;;;;18.96;100.00;101557.34;4977533;28;20034;-73
2022/08/20 06:32:54;;;;;;;0.00;0.00;;;;;;;18.97;100.00;101571.81;4977500;28;20113;-75
2022/08/20 06:35:19;;;;;;;0.15;0.15;;;;;;;18.91;100.00;101575.13;4982605;28;20030;-74
2022/08/20 06:37:44;;;;;;;0.00;0.00;;;;;;;19.00;100.00;101568.78;4986125;28;20137;-74
2022/08/20 06:40:13;;;;;;;0.00;0.00;;;;;;;19.20;100.00;101576.78;4983595;28;20026;-74
2022/08/20 06:42:42;;;;;;;0.00;0.00;;;;;;;19.36;100.00;101567.84;4977596;28;20491;-74
2022/08/20 06:45:09;;;;;;;0.10;0.10;;;;;;;19.51;100.00;101576.28;4985240;28;20064;-74
2022/08/20 06:47:39;;;;;;;0.00;0.00;;;;;;;19.69;100.00;101571.63;4983881;28;20555;-75
2022/08/20 06:50:07;;;;;;;0.10;0.10;;;;;;;19.91;100.00;101572.09;4979533;28;20308;-74
2022/08/20 06:52:32;;;;;;;0.00;0.00;;;;;;;20.05;100.00;101576.09;4974517;28;20065;-75
2022/08/20 06:54:58;;;;;;;0.10;0.10;;;;;;;20.11;100.00;101572.72;4980361;28;20046;-74
2022/08/20 06:57:23;;;;;;;0.00;0.00;;;;;;;20.10;100.00;101562.81;4980495;28;20038;-75
2022/08/20 06:59:49;;;;;;;0.00;0.00;;;;;;;20.10;100.00;101573.72;4977694;28;20414;-76
2022/08/20 07:02:15;;;;;;;0.00;0.00;;;;;;;20.07;100.00;101583.06;4980588;28;20113;-75
2022/08/20 07:04:40;;;;;;;0.00;0.00;;;;;;;19.98;100.00;101575.91;4982651;28;20026;-75
2022/08/20 07:07:14;;;;;;;0.00;0.00;;;;;;;19.91;100.00;101583.00;4980743;28;20165;-75
2022/08/20 07:09:40;;;;;;;0.10;0.10;;;;;;;19.97;100.00;101584.22;4982791;28;20125;-75
2022/08/20 07:12:05;;;;;;;0.00;0.00;;;;;;;20.07;100.00;101584.94;4984218;28;20026;-75
2022/08/20 07:14:30;;;;;;;0.10;0.10;;;;;;;20.18;100.00;101584.63;4982566;28;20534;-75
2022/08/20 07:16:56;;;;;;;0.00;0.00;;;;;;;20.38;100.00;101582.50;4983058;28;20030;-75
2022/08/20 07:19:22;;;;;;;0.00;0.00;;;;;;;20.52;100.00;101581.00;4981799;28;20026;-74
2022/08/20 07:21:48;;;;;;;0.00;0.00;;;;;;;20.84;100.00;101586.69;4979594;28;20054;-75
2022/08/20 07:24:13;;;;;;;0.00;0.00;;;;;;;20.96;100.00;101589.94;4983324;28;20418;-74
2022/08/20 07:26:38;;;;;;;0.00;0.00;;;;;;;20.86;100.00;101594.72;4983160;28;20030;-74
2022/08/20 07:29:04;;;;;;;0.00;0.00;;;;;;;20.87;100.00;101601.88;4984382;28;20097;-76
2022/08/20 07:34:13;;;;;;;;;;;;;;;20.77;100.00;101597.44;4982374;28;20114;-73
2022/08/20 07:36:39;;;;;;;0.00;0.00;;;;;;;20.78;100.00;101606.47;4979091;28;20203;-73
2022/08/20 07:39:05;;;;;;;0.00;0.00;;;;;;;20.72;100.00;101574.38;4975373;28;20030;-72
2022/08/20 07:41:30;;;;;;;0.00;0.00;;;;;;;21.16;100.00;101600.53;4976782;28;20026;-73
2022/08/20 07:43:56;;;;;;;0.00;0.00;;;;;;;21.26;99.13;101610.25;4975186;28;20120;-73
2022/08/20 07:46:21;;;;;;;0.00;0.00;;;;;;;21.29;96.48;101600.84;4980561;28;20073;-73
2022/08/20 07:48:48;;;;;;;0.00;0.00;;;;;;;21.50;97.37;101613.97;4979948;28;20089;-74
2022/08/20 07:51:16;;;;;;;0.00;0.00;;;;;;;21.56;97.07;101602.34;4981301;28;20031;-74
2022/08/20 07:53:42;;;;;;;0.00;0.00;;;;;;;21.54;96.25;101588.00;4977815;28;20049;-73
2022/08/20 07:56:11;;;;;;;0.00;0.00;;;;;;;21.86;93.61;101604.53;4976194;28;20375;-73
2022/08/20 07:58:38;;;;;;;0.00;0.00;;;;;;;21.87;85.37;101615.25;4978908;28;20030;-73
2022/08/20 08:01:07;;;;;;;0.00;0.00;;;;;;;21.50;84.95;101581.19;4967163;23;20053;-73
2022/08/20 08:03:32;;;;;;;0.00;0.00;;;;;;;21.53;86.39;101599.09;4947771;28;20042;-77
2022/08/20 08:05:59;;;;;;;0.00;0.00;;;;;;;21.47;85.71;101618.91;4947178;28;20386;-73
2022/08/20 08:08:26;;;;;;;0.00;0.00;;;;;;;21.44;85.63;101622.84;4941901;28;20038;-74
2022/08/20 08:10:55;;;;;;;0.00;0.00;;;;;;;21.28;84.69;101623.72;4941920;28;20023;-74
2022/08/20 08:13:25;;;;;;;0.00;0.00;;;;;;;21.43;85.22;101623.88;4939051;28;20070;-74
2022/08/20 08:15:51;;;;;;;0.00;0.00;;;;;;;21.76;80.61;101618.38;4942235;28;20034;-73
2022/08/20 08:18:23;;;;;;;0.00;0.00;;;;;;;21.81;79.20;101618.72;4937720;28;20042;-76
2022/08/20 08:20:52;;;;;;;0.00;0.00;;;;;;;22.04;77.76;101620.69;4951633;28;20595;-70
2022/08/20 08:23:22;;;;;;;0.00;0.00;;;;;;;22.15;76.40;101627.66;4936855;28;20039;-72
2022/08/20 08:25:50;;;;;;;0.00;0.00;;;;;;;22.26;75.12;101623.66;4937411;28;20031;-75
2022/08/20 08:28:16;;;;;;;0.00;0.00;;;;;;;22.31;74.69;101629.47;4938800;28;20134;-73
2022/08/20 08:30:43;;;;;;;0.00;0.00;;;;;;;22.28;74.24;101635.28;4939867;28;20038;-74
2022/08/20 08:33:39;;;;;;;0.00;0.00;;;;;;;22.33;71.52;101635.63;4941571;28;20093;-75
2022/08/20 08:36:11;;;;;;;0.00;0.00;;;;;;;22.42;71.77;101634.53;4937281;28;20043;-74
2022/08/20 08:38:38;;;;;;;0.00;0.00;;;;;;;22.54;72.01;101636.91;4937681;28;20030;-74
2022/08/20 08:41:48;;;;;;;0.00;0.00;;;;;;;22.71;70.54;101646.69;4939953;28;20665;-73
2022/08/20 08:44:21;;;;;;;0.00;0.00;;;;;;;23.03;71.95;101643.94;4923479;28;20031;-74
2022/08/20 08:46:48;;;;;;;0.00;0.00;;;;;;;23.17;69.68;101645.03;4937246;28;20065;-73
2022/08/20 08:49:18;;;;;;;0.10;0.10;;;;;;;23.32;67.48;101645.94;4940810;28;20042;-72
2022/08/20 08:51:47;;;;;;;0.00;0.00;;;;;;;23.24;68.15;101650.66;4947542;28;20086;-72
2022/08/20 08:54:18;;;;;;;0.10;0.00;;;;;;;23.34;69.25;101653.97;4937913;28;20063;-72
2022/08/20 08:56:43;;;;;;;0.00;0.00;;;;;;;23.44;66.38;101635.41;4941104;28;20038;-70
2022/08/20 08:59:09;;;;;;;0.00;0.00;;;;;;;23.53;65.24;101633.41;4933015;28;20054;-72
2022/08/20 09:01:41;;;;;;;0.00;0.00;;;;;;;23.79;66.09;101652.19;4940876;28;20093;-73
2022/08/20 09:04:07;;;;;;;0.00;0.00;;;;;;;23.94;66.20;101649.44;4944736;28;20362;-74
2022/08/20 09:06:32;;;;;;;0.00;0.00;;;;;;;24.10;65.11;101653.91;4927868;28;20321;-72
2022/08/20 09:09:02;;;;;;;0.00;0.00;;;;;;;23.69;62.71;101637.88;4930027;28;20110;-72
2022/08/20 09:11:29;;;;;;;0.00;0.00;;;;;;;23.62;64.16;101658.84;4942560;28;20111;-72
2022/08/20 09:13:54;;;;;;;0.00;0.00;;;;;;;23.69;63.28;101658.97;4940458;28;20051;-74
2022/08/20 09:16:21;;;;;;;0.00;0.00;;;;;;;23.78;63.60;101653.22;4936347;28;20031;-73
2022/08/20 09:18:47;;;;;;;0.00;0.00;;;;;;;23.86;64.06;101655.00;4944195;28;20482;-75
2022/08/20 09:21:13;;;;;;;0.00;0.00;;;;;;;23.80;62.18;101664.84;4938032;28;20081;-72
2022/08/20 09:23:39;;;;;;;0.00;0.00;;;;;;;23.65;62.28;101658.47;4943978;28;20670;-74
2022/08/20 09:26:04;;;;;;;0.00;0.00;;;;;;;23.47;61.75;101669.78;4941988;28;20503;-75
2022/08/20 09:28:30;;;;;;;0.00;0.00;;;;;;;23.58;62.73;101654.78;4941607;28;20487;-75
2022/08/20 09:30:55;;;;;;;0.00;0.00;;;;;;;24.01;63.35;101654.19;4942659;28;20066;-72
2022/08/20 09:33:20;;;;;;;0.00;0.00;;;;;;;24.23;64.97;101652.38;4942644;28;20109;-74
2022/08/20 09:35:46;;;;;;;0.00;0.00;;;;;;;24.36;62.99;101660.81;4938060;28;20494;-72
2022/08/20 09:38:11;;;;;;;0.00;0.00;;;;;;;24.04;62.25;101642.84;4946597;28;20058;-71
2022/08/20 09:40:38;;;;;;;0.00;0.00;;;;;;;23.61;62.92;101647.06;4943661;28;20016;-72
2022/08/20 09:43:07;;;;;;;0.00;0.00;;;;;;;23.48;63.40;101657.78;4946505;28;20431;-72
2022/08/20 09:45:33;;;;;;;0.00;0.00;;;;;;;23.71;57.41;101662.34;4943790;28;20381;-73
2022/08/20 09:47:58;;;;;;;0.08;0.08;;;;;;;24.01;58.37;101649.56;4941122;28;20479;-73
2022/08/20 09:50:25;;;;;;;0.00;0.00;;;;;;;24.22;58.04;101651.56;4946443;28;20131;-73
2022/08/20 09:52:51;;;;;;;0.08;0.08;;;;;;;24.22;59.01;101637.84;4942081;28;20069;-73
2022/08/20 09:55:21;;;;;;;0.00;0.00;;;;;;;23.80;58.41;101651.16;4941991;28;20346;-69
2022/08/20 09:57:47;;;;;;;0.00;0.00;;;;;;;23.84;58.87;101654.34;4940642;28;20041;-73
2022/08/20 10:00:13;;;;;;;0.20;0.20;;;;;;;23.53;60.14;101655.34;4945009;28;20036;-72
2022/08/20 10:02:39;;;;;;;0.03;0.03;;;;;;;23.69;58.68;101631.56;4940958;28;20488;-73
2022/08/20 10:05:05;;;;;;;0.00;0.00;;;;;;;24.26;56.48;101652.84;4939511;28;20481;-72
2022/08/20 10:07:30;;;;;;;0.00;0.00;;;;;;;24.16;56.50;101651.44;4945567;28;20035;-73
2022/08/20 10:09:55;;;;;;;0.00;0.00;;;;;;;23.99;56.68;101653.53;4940367;28;20023;-75
2022/08/20 10:12:21;;;;;;;0.00;0.00;;;;;;;24.32;57.80;101654.00;4940815;28;20361;-73
2022/08/20 10:14:46;;;;;;;0.00;0.00;;;;;;;24.64;57.26;101638.09;4943881;28;20494;-75
2022/08/20 10:17:12;;;;;;;0.00;0.00;;;;;;;25.01;54.12;101638.09;4945496;28;20814;-75
2022/08/20 10:19:37;;;;;;;0.00;0.00;;;;;;;25.08;51.96;101658.22;4940984;28;20091;-74
2022/08/20 10:22:02;;;;;;;0.00;0.00;;;;;;;24.85;51.89;101639.22;4943666;28;20155;-72
2022/08/20 10:24:28;;;;;;;0.00;0.00;;;;;;;24.49;52.17;101627.19;4937437;28;20027;-75
2022/08/20 10:26:56;;;;;;;0.00;0.00;;;;;;;24.81;51.02;101665.38;4939828;28;20034;-74
2022/08/20 10:29:21;;;;;;;0.00;0.00;;;;;;;24.94;51.27;101665.50;4945565;28;20455;-74
2022/08/20 10:31:46;;;;;;;0.28;0.03;;;;;;;24.97;51.19;101662.34;4946282;28;20031;-73
2022/08/20 10:34:12;;;;;;;0.00;0.00;;;;;;;25.30;49.89;101664.56;4941141;28;20443;-74
2022/08/20 10:36:37;;;;;;;0.00;0.00;;;;;;;25.73;49.38;101666.44;4945515;28;20059;-73
2022/08/20 10:39:02;;;;;;;0.00;0.00;;;;;;;26.02;49.30;101666.38;4940714;28;20118;-73
2022/08/20 10:41:28;;;;;;;0.00;0.00;;;;;;;26.36;44.93;101664.69;4938685;28;20062;-72
2022/08/20 10:43:53;;;;;;;0.00;0.00;;;;;;;26.39;46.56;101667.03;4940650;28;20085;-73
2022/08/20 10:46:18;;;;;;;0.00;0.00;;;;;;;26.46;46.43;101669.81;4943070;28;20554;-72
2022/08/20 10:48:44;;;;;;;0.00;0.00;;;;;;;26.38;46.76;101661.72;4943997;28;20201;-74
2022/08/20 10:51:09;;;;;;;0.00;0.00;;;;;;;26.05;47.73;101674.22;4939185;28;20019;-73
2022/08/20 10:53:34;;;;;;;0.00;0.00;;;;;;;25.84;46.05;101651.25;4939898;28;20035;-74
2022/08/20 10:56:00;;;;;;;0.00;0.00;;;;;;;26.07;47.04;101669.38;4938861;28;20087;-71
2022/08/20 10:58:26;;;;;;;0.00;0.00;;;;;;;26.49;44.91;101664.72;4942740;28;20847;-74
2022/08/20 11:00:52;;;;;;;0.03;0.03;;;;;;;26.72;43.89;101648.91;4940914;28;20019;-74
2022/08/20 11:03:17;;;;;;;0.00;0.00;;;;;;;27.23;42.28;101662.16;4943620;28;20741;-74
2022/08/20 11:05:43;;;;;;;0.00;0.00;;;;;;;26.80;43.79;101657.00;4940356;28;20023;-73
2022/08/20 11:08:08;;;;;;;0.00;0.00;;;;;;;27.20;42.81;101664.50;4939900;28;20027;-73
2022/08/20 11:10:35;;;;;;;0.00;0.00;;;;;;;27.71;43.19;101663.03;4941366;28;20343;-73
2022/08/20 11:13:02;;;;;;;0.00;0.00;;;;;;;28.02;43.40;101664.22;4938543;28;20027;-71
2022/08/20 11:15:28;;;;;;;0.00;0.00;;;;;;;28.04;40.79;101670.38;4945843;28;20039;-72
2022/08/20 11:17:54;;;;;;;0.00;0.00;;;;;;;27.74;41.17;101659.00;4942264;28;20303;-72
2022/08/20 11:20:20;;;;;;;0.00;0.00;;;;;;;27.81;41.95;101660.69;4941750;28;20023;-73
2022/08/20 11:22:46;;;;;;;0.00;0.00;;;;;;;28.18;40.87;101662.13;4941157;28;20442;-71
2022/08/20 11:25:11;;;;;;;0.00;0.00;;;;;;;28.51;39.91;101650.91;4938607;28;20408;-71
2022/08/20 11:27:40;;;;;;;0.00;0.00;;;;;;;28.48;40.02;101661.53;4940421;28;20479;-71